createdAt,value
2022-10-12T00:01:49.827Z,17.00
2022-10-12T00:04:16.755Z,17.00
2022-10-12T00:06:43.619Z,17.00
2022-10-12T00:09:10.383Z,17.00
2022-10-12T00:11:38.035Z,17.00
2022-10-12T00:14:04.825Z,17.00
2022-10-12T00:16:31.937Z,17.00
2022-10-12T00:18:59.583Z,17.00
2022-10-12T00:21:28.120Z,17.00
2022-10-12T00:23:59.995Z,17.00
2022-10-12T00:26:27.578Z,16.90
2022-10-12T00:28:57.383Z,17.00
2022-10-12T00:31:25.110Z,17.00
2022-10-12T00:33:52.438Z,17.00
2022-10-12T00:36:27.984Z,17.00
2022-10-12T00:38:55.960Z,17.00
2022-10-12T00:41:25.771Z,17.00
2022-10-12T00:43:57.950Z,17.00
2022-10-12T00:46:25.415Z,17.10
2022-10-12T00:48:59.764Z,17.00
2022-10-12T00:51:27.641Z,17.00
2022-10-12T00:54:04.166Z,17.00
2022-10-12T00:56:34.644Z,17.00
2022-10-12T00:59:05.363Z,17.00
2022-10-12T01:01:34.566Z,16.90
2022-10-12T01:04:02.526Z,16.90
2022-10-12T01:06:31.123Z,16.80
2022-10-12T01:08:58.880Z,16.90
2022-10-12T01:11:25.632Z,16.80
2022-10-12T01:13:52.429Z,16.80
2022-10-12T01:16:28.438Z,16.80
2022-10-12T01:18:57.959Z,16.80
2022-10-12T01:21:25.765Z,16.80
2022-10-12T01:24:27.659Z,16.60
2022-10-12T01:27:18.897Z,16.60
2022-10-12T01:30:13.078Z,16.70
2022-10-12T01:33:01.069Z,16.60
2022-10-12T01:35:31.168Z,16.60
2022-10-12T01:38:05.405Z,16.60
2022-10-12T01:40:38.682Z,16.50
2022-10-12T01:43:06.190Z,16.60
2022-10-12T01:45:33.105Z,16.50
2022-10-12T01:48:00.998Z,16.50
2022-10-12T01:50:39.228Z,16.50
2022-10-12T01:53:16.457Z,16.50
2022-10-12T01:56:04.520Z,16.50
2022-10-12T01:58:52.864Z,16.40
2022-10-12T02:01:50.520Z,16.40
2022-10-12T02:04:24.723Z,16.30
2022-10-12T02:07:08.920Z,16.30
2022-10-12T02:09:36.995Z,16.30
2022-10-12T02:12:14.077Z,16.30
2022-10-12T02:14:46.278Z,16.30
2022-10-12T02:17:16.917Z,16.20
2022-10-12T02:19:56.344Z,16.20
2022-10-12T02:22:28.243Z,16.20
2022-10-12T02:24:59.055Z,16.30
2022-10-12T02:27:27.194Z,16.30
2022-10-12T02:29:54.417Z,16.30
2022-10-12T02:33:02.735Z,16.30
2022-10-12T02:35:49.475Z,16.20
2022-10-12T02:38:25.188Z,16.20
2022-10-12T02:40:57.008Z,16.10
2022-10-12T02:43:23.713Z,16.20
2022-10-12T02:45:51.512Z,16.10
2022-10-12T02:48:23.291Z,16.10
2022-10-12T02:50:55.719Z,16.10
2022-10-12T02:53:24.647Z,16.10
2022-10-12T02:55:56.156Z,16.10
2022-10-12T02:58:23.238Z,16.00
2022-10-12T03:00:50.078Z,16.00
2022-10-12T03:03:16.916Z,16.00
2022-10-12T03:05:43.902Z,16.00
2022-10-12T03:08:10.660Z,16.00
2022-10-12T03:10:37.683Z,15.90
2022-10-12T03:13:04.459Z,15.90
2022-10-12T03:15:31.479Z,15.90
2022-10-12T03:17:58.523Z,15.90
2022-10-12T03:20:25.449Z,15.80
2022-10-12T03:22:52.599Z,15.80
2022-10-12T03:25:19.445Z,15.80
2022-10-12T03:27:46.259Z,15.90
2022-10-12T03:30:14.347Z,15.80
2022-10-12T03:32:41.522Z,15.80
2022-10-12T03:35:08.713Z,15.70
2022-10-12T03:37:35.610Z,15.80
2022-10-12T03:40:03.337Z,15.80
2022-10-12T03:42:30.091Z,15.70
2022-10-12T03:44:56.963Z,15.70
2022-10-12T03:47:23.677Z,15.80
2022-10-12T03:49:50.552Z,15.80
2022-10-12T03:52:17.399Z,15.70
2022-10-12T03:54:44.186Z,15.70
2022-10-12T03:57:11.002Z,15.70
2022-10-12T03:59:37.758Z,15.80
2022-10-12T04:02:04.582Z,15.80
2022-10-12T04:04:31.510Z,15.80
2022-10-12T04:06:58.352Z,15.80
2022-10-12T04:09:25.165Z,15.70
2022-10-12T04:11:52.032Z,15.70
2022-10-12T04:14:18.831Z,15.70
2022-10-12T04:16:45.648Z,15.70
2022-10-12T04:19:13.599Z,15.70
2022-10-12T04:21:40.642Z,15.80
2022-10-12T04:24:07.759Z,15.80
2022-10-12T04:26:34.557Z,15.70
2022-10-12T04:29:01.500Z,15.70
2022-10-12T04:31:28.350Z,15.70
2022-10-12T04:33:56.958Z,15.70
2022-10-12T04:36:24.965Z,15.80
2022-10-12T04:38:51.921Z,15.80
2022-10-12T04:41:19.002Z,15.70
2022-10-12T04:43:45.745Z,15.70
2022-10-12T04:46:12.575Z,15.70
2022-10-12T04:48:39.502Z,15.70
2022-10-12T04:51:06.614Z,15.80
2022-10-12T04:53:33.493Z,15.70
2022-10-12T04:56:04.047Z,15.70
2022-10-12T04:58:31.139Z,15.70
2022-10-12T05:00:57.973Z,15.70
2022-10-12T05:03:25.058Z,15.60
2022-10-12T05:05:52.041Z,15.60
2022-10-12T05:08:19.044Z,15.60
2022-10-12T05:10:47.181Z,15.50
2022-10-12T05:13:14.928Z,15.50
2022-10-12T05:15:43.327Z,15.50
2022-10-12T05:18:10.143Z,15.50
2022-10-12T05:20:37.891Z,15.40
2022-10-12T05:23:04.923Z,15.40
2022-10-12T05:25:31.968Z,15.30
2022-10-12T05:27:58.774Z,15.30
2022-10-12T05:30:25.834Z,15.30
2022-10-12T05:32:52.564Z,15.30
2022-10-12T05:35:19.396Z,15.30
2022-10-12T05:37:46.158Z,15.30
2022-10-12T05:40:13.230Z,15.30
2022-10-12T05:42:40.412Z,15.30
2022-10-12T05:45:07.942Z,15.40
2022-10-12T05:47:34.786Z,15.40
2022-10-12T05:50:01.605Z,15.40
2022-10-12T05:52:28.446Z,15.40
2022-10-12T05:54:55.405Z,15.40
2022-10-12T05:57:22.232Z,15.50
2022-10-12T05:59:49.060Z,15.50
2022-10-12T06:02:17.460Z,15.50
2022-10-12T06:04:44.290Z,15.50
2022-10-12T06:07:11.087Z,15.50
2022-10-12T06:09:41.148Z,15.50
2022-10-12T06:12:08.106Z,15.40
2022-10-12T06:14:35.118Z,15.40
2022-10-12T06:17:01.998Z,15.30
2022-10-12T06:19:28.814Z,15.30
2022-10-12T06:21:56.180Z,15.30
2022-10-12T06:24:23.031Z,15.30
2022-10-12T06:26:49.767Z,15.30
2022-10-12T06:29:18.120Z,15.30
2022-10-12T06:31:50.506Z,15.20
2022-10-12T06:34:18.622Z,15.30
2022-10-12T06:36:45.415Z,15.30
2022-10-12T06:39:12.590Z,15.30
2022-10-12T06:41:39.581Z,15.30
2022-10-12T06:44:06.750Z,15.30
2022-10-12T06:46:33.647Z,15.30
2022-10-12T06:49:00.499Z,15.30
2022-10-12T06:51:27.437Z,15.30
2022-10-12T06:53:57.209Z,15.30
2022-10-12T06:56:24.152Z,15.40
2022-10-12T06:58:55.553Z,15.40
2022-10-12T07:01:22.620Z,15.50
2022-10-12T07:03:49.469Z,15.60
2022-10-12T07:06:16.421Z,15.60
2022-10-12T07:08:43.310Z,15.50
2022-10-12T07:11:12.094Z,15.60
2022-10-12T07:13:39.283Z,15.60
2022-10-12T07:16:06.459Z,15.60
2022-10-12T07:18:33.676Z,15.70
2022-10-12T07:21:02.437Z,15.70
2022-10-12T07:23:32.073Z,15.70
2022-10-12T07:25:59.880Z,15.70
2022-10-12T07:28:27.834Z,15.70
2022-10-12T07:30:54.748Z,15.80
2022-10-12T07:33:21.625Z,15.80
2022-10-12T07:36:13.181Z,15.90
2022-10-12T07:38:44.857Z,15.90
2022-10-12T07:41:12.193Z,16.00
2022-10-12T07:43:39.358Z,16.10
2022-10-12T07:46:07.402Z,16.10
2022-10-12T07:48:34.921Z,16.20
2022-10-12T07:51:06.870Z,16.30
2022-10-12T07:53:35.504Z,16.30
2022-10-12T07:56:07.391Z,16.30
2022-10-12T07:58:34.206Z,16.30
2022-10-12T08:01:06.397Z,16.40
2022-10-12T08:03:33.471Z,16.50
2022-10-12T08:06:00.552Z,16.50
2022-10-12T08:08:27.283Z,16.30
2022-10-12T08:10:54.189Z,16.60
2022-10-12T08:13:21.033Z,16.60
2022-10-12T08:15:51.255Z,16.70
2022-10-12T08:18:18.242Z,16.70
2022-10-12T08:20:44.983Z,16.70
2022-10-12T08:23:11.749Z,16.80
2022-10-12T08:25:38.602Z,16.90
2022-10-12T08:28:05.756Z,17.00
2022-10-12T08:30:33.962Z,17.00
2022-10-12T08:33:00.788Z,17.00
2022-10-12T08:35:27.611Z,17.00
2022-10-12T08:37:55.048Z,17.10
2022-10-12T08:40:31.535Z,17.20
2022-10-12T08:43:15.691Z,17.10
2022-10-12T08:45:54.663Z,17.20
2022-10-12T08:48:26.462Z,17.20
2022-10-12T08:51:03.051Z,17.30
2022-10-12T08:53:54.643Z,17.30
2022-10-12T08:56:22.370Z,15.90
2022-10-12T08:58:51.032Z,17.40
2022-10-12T09:01:43.834Z,17.50
2022-10-12T09:04:52.496Z,17.50
2022-10-12T09:07:29.234Z,17.50
2022-10-12T09:10:17.950Z,17.50
2022-10-12T09:13:02.096Z,17.60
2022-10-12T09:15:34.652Z,17.60
2022-10-12T09:18:05.611Z,17.60
2022-10-12T09:20:46.528Z,17.60
2022-10-12T09:23:16.427Z,17.70
2022-10-12T09:25:43.495Z,17.70
2022-10-12T09:28:25.960Z,17.70
2022-10-12T09:31:15.257Z,17.80
2022-10-12T09:33:48.112Z,17.90
2022-10-12T09:36:20.477Z,17.90
2022-10-12T09:38:49.086Z,17.90
2022-10-12T09:41:24.760Z,18.00
2022-10-12T09:43:55.080Z,18.10
2022-10-12T09:46:45.261Z,18.10
2022-10-12T09:49:12.018Z,18.20
2022-10-12T09:51:39.215Z,18.20
2022-10-12T09:54:06.514Z,18.20
2022-10-12T09:56:44.691Z,18.20
2022-10-12T09:59:44.358Z,18.30
2022-10-12T10:02:13.301Z,18.40
2022-10-12T10:04:42.318Z,18.30
2022-10-12T10:07:30.821Z,18.40
2022-10-12T10:10:14.248Z,18.40
2022-10-12T10:12:50.271Z,18.40
2022-10-12T10:15:24.714Z,18.50
2022-10-12T10:17:54.666Z,18.50
2022-10-12T10:20:50.743Z,18.40
2022-10-12T10:23:34.934Z,18.50
2022-10-12T10:26:12.224Z,18.40
2022-10-12T10:28:41.385Z,18.40
2022-10-12T10:31:27.701Z,18.30
2022-10-12T10:34:19.893Z,18.50
2022-10-12T10:36:48.747Z,18.50
2022-10-12T10:39:48.145Z,18.50
2022-10-12T10:42:24.584Z,18.50
2022-10-12T10:44:57.232Z,18.60
2022-10-12T10:47:24.396Z,18.50
2022-10-12T10:50:02.966Z,18.50
2022-10-12T10:52:30.265Z,18.50
2022-10-12T10:55:17.102Z,18.50
2022-10-12T10:57:58.154Z,18.50
2022-10-12T11:00:41.111Z,18.50
2022-10-12T11:03:23.084Z,18.60
2022-10-12T11:06:00.456Z,18.60
2022-10-12T11:08:30.569Z,18.60
2022-10-12T11:11:07.038Z,18.50
2022-10-12T11:13:48.971Z,18.50
2022-10-12T11:16:29.503Z,18.60
2022-10-12T11:18:57.757Z,18.60
2022-10-12T11:21:38.263Z,18.70
2022-10-12T11:24:16.400Z,18.70
2022-10-12T11:27:04.255Z,18.70
2022-10-12T11:29:31.576Z,18.80
2022-10-12T11:32:10.607Z,18.70
2022-10-12T11:34:51.617Z,18.80
2022-10-12T11:37:22.553Z,18.80
2022-10-12T11:39:54.339Z,18.80
2022-10-12T11:42:31.155Z,18.50
2022-10-12T11:45:00.680Z,18.70
2022-10-12T11:47:30.604Z,18.70
2022-10-12T11:50:05.621Z,18.70
2022-10-12T11:52:40.833Z,18.70
2022-10-12T11:55:49.908Z,18.70
2022-10-12T11:58:42.054Z,18.80
2022-10-12T12:01:26.045Z,18.80
2022-10-12T12:04:40.117Z,18.80
2022-10-12T12:07:04.433Z,18.90
2022-10-12T12:09:31.743Z,18.90
2022-10-12T12:12:08.857Z,18.90
2022-10-12T12:14:47.778Z,18.90
2022-10-12T12:17:17.391Z,18.90
2022-10-12T12:19:49.725Z,19.00
2022-10-12T12:22:19.575Z,19.00
2022-10-12T12:25:08.565Z,19.00
2022-10-12T12:27:49.307Z,19.00
2022-10-12T12:30:19.081Z,19.00
2022-10-12T12:32:54.288Z,19.00
2022-10-12T12:35:35.747Z,19.00
2022-10-12T12:38:11.612Z,19.00
2022-10-12T12:40:41.072Z,19.00
2022-10-12T12:43:29.811Z,19.10
2022-10-12T12:45:58.255Z,19.10
2022-10-12T12:48:44.040Z,19.20
2022-10-12T12:51:21.803Z,19.30
2022-10-12T12:54:00.922Z,19.20
2022-10-12T12:56:46.816Z,19.20
2022-10-12T12:59:23.072Z,19.20
2022-10-12T13:02:17.511Z,19.20
2022-10-12T13:05:12.232Z,19.20
2022-10-12T13:08:05.121Z,19.30
2022-10-12T13:11:03.531Z,19.30
2022-10-12T13:13:59.910Z,19.30
2022-10-12T13:17:31.363Z,19.30
2022-10-12T13:19:45.630Z,19.40
2022-10-12T13:22:19.007Z,19.40
2022-10-12T13:24:50.624Z,19.50
2022-10-12T13:27:40.948Z,19.40
2022-10-12T13:30:11.208Z,19.40
2022-10-12T13:33:11.290Z,18.30
2022-10-12T13:35:51.381Z,19.30
2022-10-12T13:38:29.180Z,19.30
2022-10-12T13:41:08.516Z,19.50
2022-10-12T13:43:59.840Z,19.40
2022-10-12T13:46:44.972Z,19.40
2022-10-12T13:49:16.469Z,19.40
2022-10-12T13:51:45.900Z,19.40
2022-10-12T13:54:25.845Z,19.40
2022-10-12T13:56:59.827Z,19.40
2022-10-12T13:59:29.622Z,19.40
2022-10-12T14:02:00.922Z,19.50
2022-10-12T14:04:31.242Z,19.60
2022-10-12T14:07:18.399Z,19.50
2022-10-12T14:09:54.590Z,19.60
2022-10-12T14:12:25.464Z,19.50
2022-10-12T14:14:53.525Z,19.60
2022-10-12T14:17:21.628Z,19.60
2022-10-12T14:19:53.859Z,19.60
2022-10-12T14:22:28.118Z,19.60
2022-10-12T14:25:15.862Z,19.60
2022-10-12T14:27:43.215Z,19.50
2022-10-12T14:30:21.292Z,19.50
2022-10-12T14:32:49.375Z,19.60
2022-10-12T14:35:19.181Z,19.60
2022-10-12T14:37:47.288Z,19.60
2022-10-12T14:40:31.815Z,19.60
2022-10-12T14:43:01.987Z,19.70
2022-10-12T14:45:28.848Z,19.70
2022-10-12T14:47:56.614Z,19.60
2022-10-12T14:50:23.973Z,19.60
2022-10-12T14:52:55.038Z,19.50
2022-10-12T14:55:24.657Z,19.50
2022-10-12T14:57:51.518Z,19.30
2022-10-12T15:00:33.507Z,19.20
2022-10-12T15:03:03.660Z,19.20
2022-10-12T15:05:32.112Z,19.20
2022-10-12T15:08:00.919Z,19.20
2022-10-12T15:10:28.710Z,19.20
2022-10-12T15:12:55.453Z,19.20
2022-10-12T15:15:29.248Z,19.20
2022-10-12T15:17:56.332Z,19.20
2022-10-12T15:20:23.340Z,19.20
2022-10-12T15:22:50.088Z,19.20
2022-10-12T15:25:25.375Z,19.20
2022-10-12T15:27:52.298Z,19.20
2022-10-12T15:30:19.330Z,19.10
2022-10-12T15:32:46.122Z,19.10
2022-10-12T15:35:22.647Z,19.10
2022-10-12T15:37:50.203Z,19.10
2022-10-12T15:40:19.788Z,19.00
2022-10-12T15:42:47.275Z,19.00
2022-10-12T15:45:21.503Z,19.00
2022-10-12T15:47:50.454Z,18.90
2022-10-12T15:50:19.843Z,18.90
2022-10-12T15:52:46.763Z,18.90
2022-10-12T15:55:23.331Z,18.90
2022-10-12T15:57:51.621Z,18.90
2022-10-12T16:00:21.399Z,18.80
2022-10-12T16:02:48.249Z,18.80
2022-10-12T16:05:18.369Z,18.80
2022-10-12T16:07:45.831Z,18.80
2022-10-12T16:10:15.330Z,18.70
2022-10-12T16:12:43.778Z,18.70
2022-10-12T16:15:13.899Z,18.70
2022-10-12T16:17:40.720Z,18.70
2022-10-12T16:20:09.061Z,18.70
2022-10-12T16:22:36.851Z,18.60
2022-10-12T16:25:06.153Z,18.60
2022-10-12T16:27:33.217Z,18.50
2022-10-12T16:30:00.233Z,18.50
2022-10-12T16:32:28.365Z,18.50
2022-10-12T16:34:55.250Z,18.40
2022-10-12T16:37:22.053Z,18.40
2022-10-12T16:39:48.867Z,18.40
2022-10-12T16:42:16.243Z,18.30
2022-10-12T16:44:43.311Z,18.30
2022-10-12T16:47:10.181Z,18.30
2022-10-12T16:49:36.961Z,18.20
2022-10-12T16:52:04.968Z,18.20
2022-10-12T16:54:31.961Z,18.10
2022-10-12T16:56:59.103Z,18.10
2022-10-12T16:59:26.359Z,18.10
2022-10-12T17:01:53.282Z,18.00
2022-10-12T17:04:21.121Z,18.00
2022-10-12T17:06:48.354Z,17.90
2022-10-12T17:09:16.187Z,17.80
2022-10-12T17:11:42.990Z,17.80
2022-10-12T17:14:13.484Z,17.80
2022-10-12T17:16:49.605Z,17.80
2022-10-12T17:19:18.288Z,17.70
2022-10-12T17:21:47.531Z,17.70
2022-10-12T17:24:17.031Z,17.60
2022-10-12T17:26:44.584Z,17.70
2022-10-12T17:29:14.216Z,17.70
2022-10-12T17:31:41.528Z,17.70
2022-10-12T17:34:13.461Z,17.70
2022-10-12T17:36:40.193Z,17.70
2022-10-12T17:39:06.918Z,17.60
2022-10-12T17:41:33.985Z,17.60
2022-10-12T17:44:00.723Z,17.50
2022-10-12T17:46:28.234Z,17.50
2022-10-12T17:48:56.373Z,17.50
2022-10-12T17:51:23.202Z,17.40
2022-10-12T17:53:49.981Z,17.30
2022-10-12T17:56:17.199Z,17.30
2022-10-12T17:58:44.280Z,17.20
2022-10-12T18:01:13.795Z,17.30
2022-10-12T18:03:42.200Z,17.30
2022-10-12T18:06:15.903Z,17.20
2022-10-12T18:08:43.570Z,17.20
2022-10-12T18:11:25.568Z,17.20
2022-10-12T18:13:54.623Z,17.10
2022-10-12T18:16:24.788Z,17.10
2022-10-12T18:18:52.758Z,17.10
2022-10-12T18:21:22.561Z,17.10
2022-10-12T18:23:50.023Z,17.10
2022-10-12T18:26:22.117Z,17.00
2022-10-12T18:28:53.754Z,17.00
2022-10-12T18:31:23.111Z,17.00
2022-10-12T18:33:50.372Z,17.00
2022-10-12T18:36:18.330Z,16.90
2022-10-12T18:38:45.275Z,16.90
2022-10-12T18:41:25.744Z,16.90
2022-10-12T18:43:58.082Z,16.90
2022-10-12T18:46:27.607Z,16.80
2022-10-12T18:48:54.491Z,16.70
2022-10-12T18:51:26.556Z,16.70
2022-10-12T18:53:54.300Z,16.70
2022-10-12T18:56:21.512Z,16.60
2022-10-12T18:58:48.782Z,16.60
2022-10-12T19:01:19.612Z,16.60
2022-10-12T19:03:46.876Z,16.60
2022-10-12T19:06:18.899Z,16.50
2022-10-12T19:08:47.605Z,16.60
2022-10-12T19:11:17.582Z,16.60
2022-10-12T19:13:50.699Z,16.50
2022-10-12T19:16:17.994Z,16.50
2022-10-12T19:18:44.774Z,16.50
2022-10-12T19:21:18.700Z,16.50
2022-10-12T19:23:46.198Z,16.50
2022-10-12T19:26:19.337Z,16.60
2022-10-12T19:28:46.982Z,16.50
2022-10-12T19:31:20.480Z,16.40
2022-10-12T19:33:47.394Z,16.40
2022-10-12T19:36:16.350Z,16.30
2022-10-12T19:38:43.555Z,16.40
2022-10-12T19:41:10.512Z,16.30
2022-10-12T19:43:37.962Z,16.20
2022-10-12T19:46:07.155Z,16.20
2022-10-12T19:48:35.651Z,16.20
2022-10-12T19:51:06.946Z,16.20
2022-10-12T19:53:34.278Z,16.30
2022-10-12T19:56:06.513Z,16.10
2022-10-12T19:58:33.781Z,16.20
2022-10-12T20:01:21.842Z,16.20
2022-10-12T20:03:52.452Z,16.10
2022-10-12T20:06:21.733Z,16.00
2022-10-12T20:08:49.036Z,16.00
2022-10-12T20:11:22.514Z,16.00
2022-10-12T20:13:51.646Z,16.00
2022-10-12T20:16:19.613Z,16.00
2022-10-12T20:18:47.008Z,15.90
2022-10-12T20:21:16.031Z,15.90
2022-10-12T20:23:43.562Z,15.90
2022-10-12T20:26:13.907Z,15.80
2022-10-12T20:28:40.777Z,15.90
2022-10-12T20:31:08.539Z,15.90
2022-10-12T20:33:37.621Z,15.90
2022-10-12T20:36:08.844Z,15.90
2022-10-12T20:38:36.393Z,15.90
2022-10-12T20:41:10.537Z,15.90
2022-10-12T20:43:41.648Z,15.90
2022-10-12T20:46:12.911Z,15.90
2022-10-12T20:48:40.149Z,15.80
2022-10-12T20:51:08.986Z,15.80
2022-10-12T20:53:36.244Z,15.80
2022-10-12T20:56:06.839Z,15.80
2022-10-12T20:58:33.989Z,15.70
2022-10-12T21:01:12.014Z,15.70
2022-10-12T21:03:39.819Z,15.70
2022-10-12T21:06:09.162Z,15.70
2022-10-12T21:08:36.596Z,15.70
2022-10-12T21:11:06.079Z,15.60
2022-10-12T21:13:35.642Z,15.60
2022-10-12T21:16:02.679Z,15.50
2022-10-12T21:18:32.778Z,15.50
2022-10-12T21:21:11.595Z,15.50
2022-10-12T21:23:39.914Z,15.50
2022-10-12T21:26:15.328Z,15.50
2022-10-12T21:28:42.490Z,15.60
2022-10-12T21:31:10.474Z,15.50
2022-10-12T21:33:38.246Z,15.50
2022-10-12T21:36:16.298Z,15.50
2022-10-12T21:38:43.329Z,15.50
2022-10-12T21:41:11.734Z,15.40
2022-10-12T21:43:40.179Z,15.40
2022-10-12T21:46:09.793Z,15.30
2022-10-12T21:48:37.016Z,15.30
2022-10-12T21:51:05.573Z,15.30
2022-10-12T21:53:33.529Z,15.40
2022-10-12T21:56:07.603Z,15.40
2022-10-12T21:58:34.910Z,15.40
2022-10-12T22:01:10.986Z,15.40
2022-10-12T22:03:37.819Z,15.30
2022-10-12T22:06:04.868Z,15.30
2022-10-12T22:08:32.508Z,15.30
2022-10-12T22:11:07.914Z,15.20
2022-10-12T22:13:35.240Z,15.30
2022-10-12T22:16:08.319Z,15.20
2022-10-12T22:18:35.411Z,15.10
2022-10-12T22:21:04.627Z,15.10
2022-10-12T22:23:32.307Z,15.10
2022-10-12T22:26:05.075Z,15.00
2022-10-12T22:28:31.964Z,14.90
2022-10-12T22:30:59.033Z,15.00
2022-10-12T22:33:25.978Z,14.90
2022-10-12T22:35:57.532Z,15.00
2022-10-12T22:38:25.397Z,15.00
2022-10-12T22:41:02.399Z,15.00
2022-10-12T22:43:30.767Z,14.90
2022-10-12T22:45:58.529Z,14.80
2022-10-12T22:48:25.871Z,14.80
2022-10-12T22:50:53.014Z,14.80
2022-10-12T22:53:21.312Z,14.80
2022-10-12T22:55:48.510Z,14.70
2022-10-12T22:58:15.879Z,14.70
2022-10-12T23:00:42.750Z,14.70
2022-10-12T23:03:09.816Z,14.70
2022-10-12T23:05:36.554Z,14.80
2022-10-12T23:08:03.639Z,14.70
2022-10-12T23:10:30.492Z,14.70
2022-10-12T23:12:57.626Z,14.70
2022-10-12T23:15:24.338Z,14.70
2022-10-12T23:17:51.080Z,14.70
2022-10-12T23:20:17.909Z,14.60
2022-10-12T23:22:44.664Z,14.60
2022-10-12T23:25:11.404Z,14.60
2022-10-12T23:27:38.140Z,14.60
2022-10-12T23:30:05.343Z,14.50
2022-10-12T23:32:32.106Z,14.60
2022-10-12T23:34:58.834Z,14.60
2022-10-12T23:37:25.595Z,14.60
2022-10-12T23:39:52.469Z,14.50
2022-10-12T23:42:20.002Z,14.50
2022-10-12T23:44:47.060Z,14.40
2022-10-12T23:47:13.850Z,14.40
2022-10-12T23:49:40.677Z,14.40
2022-10-12T23:52:07.375Z,14.30
2022-10-12T23:54:34.129Z,14.40
2022-10-12T23:57:00.891Z,14.30
2022-10-12T23:59:27.589Z,14.30
